createdAt,value
2023-04-16T00:01:05.741Z,13.73
2023-04-16T00:03:33.044Z,14.93
2023-04-16T00:05:59.924Z,14.60
2023-04-16T00:08:26.696Z,14.70
2023-04-16T00:11:18.090Z,15.57
2023-04-16T00:13:45.037Z,14.77
2023-04-16T00:16:11.861Z,13.50
2023-04-16T00:18:38.559Z,13.17
2023-04-16T00:21:05.568Z,13.07
2023-04-16T00:23:32.486Z,13.93
2023-04-16T00:26:00.289Z,12.73
2023-04-16T00:28:27.738Z,12.23
2023-04-16T00:30:55.099Z,12.57
2023-04-16T00:33:21.855Z,12.87
2023-04-16T00:35:49.351Z,11.90
2023-04-16T00:38:47.299Z,11.77
2023-04-16T00:41:14.465Z,11.67
2023-04-16T00:43:44.055Z,12.23
2023-04-16T00:46:11.904Z,10.97
2023-04-16T00:48:42.546Z,11.23
2023-04-16T00:51:10.011Z,11.80
2023-04-16T00:53:37.282Z,11.60
2023-04-16T00:56:06.195Z,11.00
2023-04-16T00:58:35.194Z,10.27
2023-04-16T01:01:02.333Z,10.37
2023-04-16T01:03:39.971Z,11.93
2023-04-16T01:06:07.856Z,10.90
2023-04-16T01:08:36.860Z,12.20
2023-04-16T01:11:04.347Z,12.57
2023-04-16T01:13:31.672Z,11.17
2023-04-16T01:15:58.511Z,12.53
2023-04-16T01:18:26.522Z,11.47
2023-04-16T01:20:53.275Z,13.33
2023-04-16T01:23:20.795Z,12.57
2023-04-16T01:25:49.803Z,11.47
2023-04-16T01:28:17.442Z,11.87
2023-04-16T01:30:44.588Z,13.80
2023-04-16T01:33:22.376Z,11.10
2023-04-16T01:35:49.159Z,11.77
2023-04-16T01:38:16.070Z,11.10
2023-04-16T01:40:43.127Z,11.93
2023-04-16T01:43:09.943Z,12.83
2023-04-16T01:45:36.898Z,12.37
2023-04-16T01:48:18.480Z,12.00
2023-04-16T01:50:45.283Z,12.37
2023-04-16T01:53:11.937Z,14.60
2023-04-16T01:55:38.816Z,14.50
2023-04-16T01:58:07.499Z,12.23
2023-04-16T02:00:35.955Z,14.07
2023-04-16T02:03:02.967Z,13.63
2023-04-16T02:05:30.120Z,13.90
2023-04-16T02:07:58.113Z,14.53
2023-04-16T02:10:25.099Z,14.17
2023-04-16T02:12:52.060Z,13.67
2023-04-16T02:15:18.969Z,16.50
2023-04-16T02:17:46.894Z,13.10
2023-04-16T02:20:13.774Z,13.40
2023-04-16T02:22:51.272Z,12.97
2023-04-16T02:25:20.898Z,13.30
2023-04-16T02:27:48.443Z,16.57
2023-04-16T02:30:44.675Z,13.60
2023-04-16T02:33:26.904Z,15.00
2023-04-16T02:36:01.029Z,12.23
2023-04-16T02:38:27.802Z,13.33
2023-04-16T02:41:13.876Z,14.43
2023-04-16T02:43:41.032Z,15.20
2023-04-16T02:46:08.889Z,14.20
2023-04-16T02:48:59.676Z,14.60
2023-04-16T02:51:26.661Z,13.67
2023-04-16T02:54:34.487Z,15.47
2023-04-16T02:57:02.647Z,16.63
2023-04-16T02:59:29.229Z,15.50
2023-04-16T03:01:56.147Z,18.23
2023-04-16T03:04:25.858Z,16.93
2023-04-16T03:06:55.758Z,14.10
2023-04-16T03:09:22.407Z,14.87
2023-04-16T03:11:49.034Z,22.67
2023-04-16T03:14:15.786Z,15.97
2023-04-16T03:16:42.424Z,15.30
2023-04-16T03:19:09.268Z,14.70
2023-04-16T03:21:56.252Z,16.33
2023-04-16T03:24:22.934Z,16.47
2023-04-16T03:26:49.749Z,15.90
2023-04-16T03:30:02.372Z,16.93
2023-04-16T03:32:30.552Z,16.80
2023-04-16T03:34:57.458Z,17.63
2023-04-16T03:37:24.394Z,16.03
2023-04-16T03:39:51.523Z,18.07
2023-04-16T03:42:18.549Z,18.47
2023-04-16T03:44:45.607Z,19.03
2023-04-16T03:47:13.456Z,17.73
2023-04-16T03:49:40.239Z,16.50
2023-04-16T03:52:07.338Z,15.83
2023-04-16T03:54:34.295Z,19.87
2023-04-16T03:57:13.420Z,17.40
2023-04-16T03:59:40.103Z,17.70
2023-04-16T04:02:07.078Z,17.07
2023-04-16T04:08:30.492Z,17.17
2023-04-16T04:10:57.317Z,16.83
2023-04-16T04:13:24.967Z,17.57
2023-04-16T04:15:53.061Z,17.10
2023-04-16T04:18:20.874Z,15.77
2023-04-16T04:20:47.665Z,15.67
2023-04-16T04:23:16.942Z,16.60
2023-04-16T04:26:05.626Z,18.63
2023-04-16T04:28:32.837Z,16.23
2023-04-16T04:31:01.010Z,14.70
2023-04-16T04:33:30.581Z,16.50
2023-04-16T04:35:57.348Z,15.30
2023-04-16T04:38:25.431Z,15.73
2023-04-16T04:40:53.288Z,17.10
2023-04-16T04:43:26.918Z,17.97
2023-04-16T04:45:53.685Z,17.43
2023-04-16T04:48:26.313Z,14.10
2023-04-16T04:50:54.101Z,15.20
2023-04-16T04:53:21.174Z,14.20
2023-04-16T04:55:50.909Z,14.53
2023-04-16T04:58:19.694Z,13.83
2023-04-16T05:00:46.488Z,14.43
2023-04-16T05:03:13.432Z,14.40
2023-04-16T05:05:41.186Z,15.23
2023-04-16T05:08:33.001Z,13.87
2023-04-16T05:10:59.970Z,13.80
2023-04-16T05:13:27.156Z,12.93
2023-04-16T05:15:53.919Z,12.53
2023-04-16T05:18:20.875Z,12.40
2023-04-16T05:20:47.625Z,11.70
2023-04-16T05:23:15.773Z,13.80
2023-04-16T05:26:26.473Z,14.83
2023-04-16T05:28:53.126Z,11.93
2023-04-16T05:31:19.784Z,12.50
2023-04-16T05:34:14.883Z,13.20
2023-04-16T05:36:41.768Z,13.37
2023-04-16T05:39:08.684Z,11.37
2023-04-16T05:41:35.854Z,10.83
2023-04-16T05:44:16.054Z,14.77
2023-04-16T05:46:42.959Z,11.17
2023-04-16T05:49:11.743Z,10.07
2023-04-16T05:51:42.160Z,11.07
2023-04-16T05:54:09.112Z,12.20
2023-04-16T05:56:36.002Z,10.97
2023-04-16T05:59:02.955Z,11.57
2023-04-16T06:01:29.965Z,12.23
2023-04-16T06:03:56.678Z,13.23
2023-04-16T06:06:23.444Z,10.43
2023-04-16T06:09:42.168Z,12.87
2023-04-16T06:12:09.467Z,11.90
2023-04-16T06:14:36.469Z,13.27
2023-04-16T06:17:03.085Z,12.27
2023-04-16T06:19:29.866Z,14.40
2023-04-16T06:21:57.084Z,13.17
2023-04-16T06:24:24.156Z,12.40
2023-04-16T06:26:50.808Z,15.67
2023-04-16T06:29:17.686Z,17.70
2023-04-16T06:31:45.986Z,13.73
2023-04-16T06:34:12.727Z,15.43
2023-04-16T06:37:17.070Z,18.07
2023-04-16T06:39:43.888Z,14.30
2023-04-16T06:42:54.507Z,16.50
2023-04-16T06:45:25.267Z,17.23
2023-04-16T06:47:52.454Z,15.63
2023-04-16T06:50:34.875Z,15.17
2023-04-16T06:53:02.331Z,15.80
2023-04-16T06:55:29.172Z,13.03
2023-04-16T07:02:14.376Z,16.87
2023-04-16T07:04:41.380Z,15.27
2023-04-16T07:07:19.355Z,16.20
2023-04-16T07:09:51.788Z,20.27
2023-04-16T07:12:19.970Z,15.97
2023-04-16T07:14:48.312Z,16.27
2023-04-16T07:17:15.075Z,15.47
2023-04-16T07:20:01.149Z,17.27
2023-04-16T07:22:27.761Z,15.87
2023-04-16T07:24:56.537Z,14.87
2023-04-16T07:27:23.273Z,14.07
2023-04-16T07:29:50.653Z,13.63
2023-04-16T07:32:17.433Z,14.93
2023-04-16T07:34:44.180Z,13.77
2023-04-16T07:40:56.983Z,15.90
2023-04-16T07:43:29.186Z,13.30
2023-04-16T07:45:56.079Z,12.57
2023-04-16T07:48:22.800Z,14.30
2023-04-16T07:50:50.252Z,12.43
2023-04-16T07:53:16.879Z,12.83
2023-04-16T07:55:43.598Z,13.27
2023-04-16T07:58:14.401Z,13.83
2023-04-16T08:00:41.333Z,13.60
2023-04-16T08:03:08.205Z,12.93
2023-04-16T08:05:35.152Z,13.13
2023-04-16T08:08:02.229Z,13.73
2023-04-16T08:10:47.895Z,12.37
2023-04-16T08:13:14.484Z,12.33
2023-04-16T08:15:41.307Z,13.03
2023-04-16T08:18:12.874Z,12.97
2023-04-16T08:20:39.635Z,13.70
2023-04-16T08:27:33.108Z,10.00
2023-04-16T08:30:07.809Z,11.97
2023-04-16T08:32:34.754Z,12.13
2023-04-16T08:39:01.519Z,11.37
2023-04-16T08:45:27.468Z,11.23
2023-04-16T08:48:23.212Z,10.57
2023-04-16T08:50:53.027Z,12.33
2023-04-16T08:53:39.573Z,10.73
2023-04-16T08:56:09.996Z,10.70
2023-04-16T08:58:38.371Z,11.20
2023-04-16T09:01:06.204Z,11.67
2023-04-16T09:03:35.767Z,11.97
2023-04-16T09:10:03.445Z,13.10
2023-04-16T09:12:31.402Z,12.67
2023-04-16T09:15:01.216Z,11.93
2023-04-16T09:21:37.734Z,12.20
2023-04-16T09:24:09.882Z,13.47
2023-04-16T09:26:36.906Z,13.33
2023-04-16T09:33:25.652Z,13.50
2023-04-16T09:40:00.125Z,12.83
2023-04-16T09:42:31.914Z,13.77
2023-04-16T09:45:22.713Z,14.13
2023-04-16T09:48:03.001Z,12.17
2023-04-16T09:50:29.803Z,13.50
2023-04-16T09:52:56.513Z,14.73
2023-04-16T09:55:27.069Z,13.83
2023-04-16T09:58:02.579Z,15.20
2023-04-16T10:00:31.132Z,13.07
2023-04-16T10:03:07.534Z,17.30
2023-04-16T10:05:34.849Z,15.43
2023-04-16T10:08:18.962Z,13.30
2023-04-16T10:10:45.918Z,14.37
2023-04-16T10:13:17.684Z,15.30
2023-04-16T10:15:44.857Z,15.40
2023-04-16T10:18:11.829Z,15.60
2023-04-16T10:28:38.239Z,16.23
2023-04-16T10:31:08.211Z,16.27
2023-04-16T10:33:39.526Z,16.63
2023-04-16T10:36:24.180Z,14.63
2023-04-16T10:38:54.823Z,15.47
2023-04-16T10:41:43.635Z,16.93
2023-04-16T10:44:11.375Z,15.33
2023-04-16T10:46:43.689Z,16.77
2023-04-16T10:49:23.952Z,16.63
2023-04-16T10:52:32.432Z,14.80
2023-04-16T10:55:00.560Z,13.53
2023-04-16T10:57:29.238Z,13.77
2023-04-16T10:59:56.331Z,14.23
2023-04-16T11:02:29.248Z,13.47
2023-04-16T11:05:43.943Z,16.07
2023-04-16T11:08:16.729Z,14.33
2023-04-16T11:10:43.361Z,13.93
2023-04-16T11:13:12.930Z,15.20
2023-04-16T11:15:39.636Z,14.90
2023-04-16T11:18:07.319Z,15.97
2023-04-16T11:20:34.437Z,14.67
2023-04-16T11:23:01.140Z,15.33
2023-04-16T11:25:35.155Z,15.67
2023-04-16T11:28:02.348Z,14.33
2023-04-16T11:30:31.509Z,15.90
2023-04-16T11:32:58.278Z,16.20
2023-04-16T11:40:26.120Z,16.63
2023-04-16T11:47:24.089Z,17.27
2023-04-16T11:49:51.574Z,15.57
2023-04-16T11:52:44.134Z,17.43
2023-04-16T11:55:11.114Z,15.10
2023-04-16T11:57:54.301Z,13.70
2023-04-16T12:00:24.319Z,15.00
2023-04-16T12:02:54.121Z,15.37
2023-04-16T12:05:28.786Z,16.17
2023-04-16T12:07:55.973Z,14.63
2023-04-16T12:11:11.917Z,17.63
2023-04-16T12:13:40.321Z,14.30
2023-04-16T12:16:18.877Z,15.53
2023-04-16T12:19:04.078Z,15.07
2023-04-16T12:21:41.710Z,16.03
2023-04-16T12:24:11.446Z,16.43
2023-04-16T12:26:52.078Z,16.93
2023-04-16T12:29:21.848Z,16.03
2023-04-16T12:34:50.886Z,16.47
2023-04-16T12:37:17.704Z,14.80
2023-04-16T12:39:45.480Z,16.63
2023-04-16T12:42:13.153Z,17.30
2023-04-16T12:44:42.525Z,15.60
2023-04-16T12:47:09.055Z,18.40
2023-04-16T12:49:36.732Z,16.50
2023-04-16T12:52:16.758Z,17.20
2023-04-16T12:54:43.421Z,16.43
2023-04-16T12:57:10.147Z,16.30
2023-04-16T12:59:58.334Z,18.07
2023-04-16T13:02:26.068Z,17.33
2023-04-16T13:05:00.045Z,18.53
2023-04-16T13:15:28.170Z,17.67
2023-04-16T13:17:54.826Z,17.90
2023-04-16T13:20:23.913Z,16.93
2023-04-16T13:23:19.387Z,20.00
2023-04-16T13:25:53.483Z,18.87
2023-04-16T13:28:21.725Z,18.53
2023-04-16T13:30:48.778Z,19.10
2023-04-16T13:33:19.739Z,20.13
2023-04-16T13:35:49.712Z,18.67
2023-04-16T13:38:29.587Z,21.10
2023-04-16T13:44:49.367Z,21.07
2023-04-16T13:47:49.242Z,21.97
2023-04-16T13:50:16.672Z,23.07
2023-04-16T13:52:43.482Z,23.50
2023-04-16T13:55:34.709Z,24.20
2023-04-16T13:58:10.959Z,22.17
2023-04-16T14:00:44.355Z,21.17
2023-04-16T14:07:39.578Z,22.20
2023-04-16T14:10:06.920Z,23.37
2023-04-16T14:12:33.805Z,22.50
2023-04-16T14:15:02.218Z,24.83
2023-04-16T14:25:22.282Z,24.03
2023-04-16T14:28:01.859Z,23.27
2023-04-16T14:30:28.726Z,22.70
2023-04-16T14:32:55.908Z,25.07
2023-04-16T14:35:23.274Z,22.23
2023-04-16T14:37:52.569Z,23.07
2023-04-16T14:40:19.520Z,24.20
2023-04-16T14:42:46.301Z,23.07
2023-04-16T14:45:13.356Z,22.60
2023-04-16T14:47:46.122Z,24.47
2023-04-16T14:50:13.486Z,23.07
2023-04-16T14:52:40.639Z,23.13
2023-04-16T14:55:07.727Z,26.43
2023-04-16T14:57:35.312Z,25.03
2023-04-16T15:00:10.504Z,26.17
2023-04-16T15:02:48.213Z,25.33
2023-04-16T15:05:15.184Z,24.70
2023-04-16T15:11:49.768Z,22.50
2023-04-16T15:14:43.204Z,23.57
2023-04-16T15:17:10.239Z,26.97
2023-04-16T15:24:08.969Z,22.97
2023-04-16T15:30:48.713Z,23.10
2023-04-16T15:33:15.581Z,21.37
2023-04-16T15:35:42.501Z,21.83
2023-04-16T15:38:09.320Z,20.13
2023-04-16T15:40:36.950Z,21.10
2023-04-16T15:47:21.390Z,20.23
2023-04-16T15:54:03.917Z,21.23
2023-04-16T15:56:31.592Z,19.33
2023-04-16T16:03:07.618Z,21.00
2023-04-16T16:06:21.169Z,22.00
2023-04-16T16:09:13.010Z,20.07
2023-04-16T16:11:42.051Z,18.03
2023-04-16T16:14:09.281Z,17.17
2023-04-16T16:16:36.482Z,19.17
2023-04-16T16:23:05.569Z,17.53
2023-04-16T16:25:32.732Z,17.07
2023-04-16T16:27:59.750Z,16.67
2023-04-16T16:30:29.569Z,16.60
2023-04-16T16:32:56.498Z,16.73
2023-04-16T16:39:26.797Z,13.27
2023-04-16T16:41:53.640Z,14.67
2023-04-16T16:44:48.280Z,16.10
2023-04-16T16:47:15.048Z,16.17
2023-04-16T16:55:04.432Z,13.30
2023-04-16T17:01:32.240Z,14.87
2023-04-16T17:16:19.938Z,13.90
2023-04-16T17:18:59.419Z,16.17
2023-04-16T17:21:28.488Z,15.73
2023-04-16T17:23:57.500Z,13.50
2023-04-16T17:26:24.325Z,13.37
2023-04-16T17:28:51.081Z,17.33
2023-04-16T17:31:18.246Z,14.83
2023-04-16T17:37:56.281Z,17.67
2023-04-16T17:40:23.355Z,15.93
2023-04-16T17:42:50.300Z,17.73
2023-04-16T17:49:17.123Z,11.63
2023-04-16T17:52:19.224Z,15.30
2023-04-16T17:54:46.007Z,15.00
2023-04-16T17:57:12.648Z,17.43
2023-04-16T17:59:39.317Z,15.53
2023-04-16T18:02:06.413Z,18.43
2023-04-16T18:04:33.717Z,15.60
2023-04-16T18:07:00.702Z,15.93
2023-04-16T18:09:57.792Z,18.43
2023-04-16T18:12:24.678Z,15.83
2023-04-16T18:14:51.448Z,14.60
2023-04-16T18:17:33.035Z,15.90
2023-04-16T18:20:01.546Z,15.23
2023-04-16T18:22:53.288Z,16.63
2023-04-16T18:25:29.433Z,19.40
2023-04-16T18:28:00.218Z,17.13
2023-04-16T18:30:40.645Z,15.77
2023-04-16T18:33:34.302Z,17.83
2023-04-16T18:35:54.340Z,20.10
2023-04-16T18:38:21.289Z,17.00
2023-04-16T18:45:58.311Z,18.33
2023-04-16T19:00:12.696Z,34.67
2023-04-16T19:06:40.054Z,38.63
2023-04-16T19:09:06.921Z,28.93
2023-04-16T19:11:34.628Z,25.60
2023-04-16T19:18:01.879Z,24.97
2023-04-16T19:20:37.851Z,20.83
2023-04-16T19:27:19.100Z,23.50
2023-04-16T19:29:47.546Z,20.40
2023-04-16T19:32:14.433Z,21.17
2023-04-16T19:34:41.212Z,20.27
2023-04-16T19:37:08.053Z,20.63
2023-04-16T19:39:34.884Z,17.47
2023-04-16T19:42:04.900Z,15.20
2023-04-16T19:44:32.383Z,16.10
2023-04-16T19:50:45.526Z,24.00
2023-04-16T19:57:12.099Z,30.70
2023-04-16T19:59:38.983Z,28.53
2023-04-16T20:02:41.305Z,30.87
2023-04-16T20:09:52.169Z,27.30
2023-04-16T20:16:24.254Z,22.23
2023-04-16T20:19:22.307Z,23.27
2023-04-16T20:21:49.119Z,21.20
2023-04-16T20:24:15.933Z,27.43
2023-04-16T20:34:42.935Z,22.70
2023-04-16T20:37:30.011Z,21.03
2023-04-16T20:39:56.910Z,21.50
2023-04-16T20:42:26.508Z,19.57
2023-04-16T20:44:56.777Z,20.57
2023-04-16T20:47:23.830Z,20.07
2023-04-16T20:53:40.865Z,21.70
2023-04-16T20:56:09.195Z,23.03
2023-04-16T21:02:36.518Z,25.70
2023-04-16T21:05:29.232Z,23.97
2023-04-16T21:07:56.065Z,26.93
2023-04-16T21:10:22.657Z,24.03
2023-04-16T21:16:49.174Z,21.07
2023-04-16T21:19:15.948Z,22.50
2023-04-16T21:21:42.838Z,24.27
2023-04-16T21:24:09.513Z,20.67
2023-04-16T21:27:26.550Z,26.40
2023-04-16T21:29:53.337Z,22.80
2023-04-16T21:32:20.079Z,21.30
2023-04-16T21:34:46.804Z,22.70
2023-04-16T21:41:13.367Z,25.27
2023-04-16T21:43:40.023Z,20.20
2023-04-16T21:46:32.724Z,24.07
2023-04-16T21:48:59.390Z,21.30
2023-04-16T21:51:29.178Z,21.40
2023-04-16T21:57:41.327Z,22.00
2023-04-16T22:08:23.236Z,23.90
2023-04-16T22:10:51.514Z,25.77
2023-04-16T22:13:18.319Z,25.37
2023-04-16T22:16:13.848Z,25.47
2023-04-16T22:22:49.166Z,28.07
2023-04-16T22:25:16.415Z,27.03
2023-04-16T22:27:43.195Z,26.37
2023-04-16T22:30:10.427Z,25.60
2023-04-16T22:32:40.647Z,27.07
2023-04-16T22:35:07.789Z,25.53
2023-04-16T22:37:34.532Z,24.47
2023-04-16T22:40:26.564Z,23.83
2023-04-16T22:42:53.408Z,23.03
2023-04-16T22:45:20.349Z,24.83
2023-04-16T22:47:47.556Z,20.37
2023-04-16T22:50:15.066Z,23.20
2023-04-16T22:52:41.881Z,22.17
2023-04-16T22:55:09.080Z,21.30
2023-04-16T22:57:35.879Z,21.97
2023-04-16T23:00:05.543Z,19.57
2023-04-16T23:02:32.308Z,20.40
2023-04-16T23:05:00.930Z,22.87
2023-04-16T23:11:31.252Z,21.17
2023-04-16T23:14:23.199Z,20.03
2023-04-16T23:20:55.779Z,23.60
2023-04-16T23:23:24.727Z,22.50
2023-04-16T23:25:54.799Z,19.90
2023-04-16T23:28:22.252Z,21.03
2023-04-16T23:30:53.124Z,21.67
2023-04-16T23:33:20.249Z,20.30
2023-04-16T23:39:34.219Z,18.77
2023-04-16T23:42:00.936Z,20.43
2023-04-16T23:44:27.645Z,21.33
2023-04-16T23:46:54.460Z,22.80
2023-04-16T23:53:21.300Z,20.77
2023-04-16T23:55:47.891Z,21.57
2023-04-16T23:58:44.755Z,21.43
